sensor_id;sensor_type;location;lat;lon;timestamp;pressure;altitude;pressure_sealevel;temperature;humidity
41102;BME280;26845;50.190;19.178;2023-04-28T05:40:53;99112.17;;;5.89;70.96
41102;BME280;26845;50.190;19.178;2023-04-28T05:43:33;99106.02;;;6.15;70.92
41102;BME280;26845;50.190;19.178;2023-04-28T06:41:19;99104.77;;;8.84;64.42
41102;BME280;26845;50.190;19.178;2023-04-28T07:01:12;99092.23;;;10.06;63.02
41102;BME280;26845;50.190;19.178;2023-04-28T07:03:52;99085.84;;;10.29;62.37
41102;BME280;26845;50.190;19.178;2023-04-28T07:06:32;99081.48;;;10.17;60.60
41102;BME280;26845;50.190;19.178;2023-04-28T07:09:12;99080.17;;;10.19;62.05
41102;BME280;26845;50.190;19.178;2023-04-28T07:11:52;99081.06;;;10.36;62.17
41102;BME280;26845;50.190;19.178;2023-04-28T07:14:32;99087.52;;;10.52;61.72
41102;BME280;26845;50.190;19.178;2023-04-28T07:17:12;99083.08;;;10.68;61.44
41102;BME280;26845;50.190;19.178;2023-04-28T07:19:52;99080.58;;;10.79;61.48
41102;BME280;26845;50.190;19.178;2023-04-28T07:22:32;99083.31;;;10.83;60.70
41102;BME280;26845;50.190;19.178;2023-04-28T07:25:12;99079.52;;;10.96;60.75
41102;BME280;26845;50.190;19.178;2023-04-28T07:27:52;99077.45;;;11.14;60.97
41102;BME280;26845;50.190;19.178;2023-04-28T07:30:32;99074.13;;;11.36;59.36
41102;BME280;26845;50.190;19.178;2023-04-28T07:33:12;99072.38;;;11.42;59.43
41102;BME280;26845;50.190;19.178;2023-04-28T07:35:52;99071.48;;;11.54;58.26
41102;BME280;26845;50.190;19.178;2023-04-28T07:38:34;99066.73;;;11.63;58.24
41102;BME280;26845;50.190;19.178;2023-04-28T07:41:15;99065.71;;;11.81;58.19
41102;BME280;26845;50.190;19.178;2023-04-28T07:43:55;99057.67;;;11.86;56.20
41102;BME280;26845;50.190;19.178;2023-04-28T07:46:35;99059.23;;;11.91;55.87
41102;BME280;26845;50.190;19.178;2023-04-28T07:49:15;99054.00;;;12.16;56.80
41102;BME280;26845;50.190;19.178;2023-04-28T07:51:55;99048.75;;;12.53;56.96
41102;BME280;26845;50.190;19.178;2023-04-28T07:54:34;99052.73;;;12.91;57.08
41102;BME280;26845;50.190;19.178;2023-04-28T07:57:15;99053.73;;;13.16;55.70
41102;BME280;26845;50.190;19.178;2023-04-28T07:59:55;99054.34;;;13.19;54.23
41102;BME280;26845;50.190;19.178;2023-04-28T08:02:35;99058.06;;;13.03;53.00
41102;BME280;26845;50.190;19.178;2023-04-28T08:05:15;99053.75;;;13.14;54.95
41102;BME280;26845;50.190;19.178;2023-04-28T08:07:54;99046.96;;;13.56;54.25
41102;BME280;26845;50.190;19.178;2023-04-28T08:10:35;99040.67;;;13.84;53.57
41102;BME280;26845;50.190;19.178;2023-04-28T08:13:15;99040.67;;;14.14;51.44
41102;BME280;26845;50.190;19.178;2023-04-28T08:15:55;99039.70;;;14.21;52.18
41102;BME280;26845;50.190;19.178;2023-04-28T08:18:35;99034.50;;;14.42;52.09
41102;BME280;26845;50.190;19.178;2023-04-28T08:21:15;99039.15;;;14.57;50.24
41102;BME280;26845;50.190;19.178;2023-04-28T08:26:35;99031.90;;;15.11;51.43
41102;BME280;26845;50.190;19.178;2023-04-28T08:29:15;99025.29;;;15.34;49.84
41102;BME280;26845;50.190;19.178;2023-04-28T08:32:13;99024.71;;;15.57;49.14
41102;BME280;26845;50.190;19.178;2023-04-28T08:34:53;99019.75;;;15.59;46.44
41102;BME280;26845;50.190;19.178;2023-04-28T08:37:34;99018.29;;;15.65;49.18
41102;BME280;26845;50.190;19.178;2023-04-28T08:40:14;99016.83;;;15.52;41.68
41102;BME280;26845;50.190;19.178;2023-04-28T08:42:54;99009.40;;;15.14;46.01
41102;BME280;26845;50.190;19.178;2023-04-28T08:45:34;99010.75;;;15.25;46.20
41102;BME280;26845;50.190;19.178;2023-04-28T08:48:17;99007.36;;;15.46;45.78
41102;BME280;26845;50.190;19.178;2023-04-28T08:50:53;99011.92;;;15.51;45.64
41102;BME280;26845;50.190;19.178;2023-04-28T08:53:37;99008.08;;;15.68;46.93
41102;BME280;26845;50.190;19.178;2023-04-28T08:56:16;99006.66;;;15.98;45.73
41102;BME280;26845;50.190;19.178;2023-04-28T08:58:56;98999.99;;;16.14;45.61
41102;BME280;26845;50.190;19.178;2023-04-28T09:01:55;99003.05;;;16.43;45.11
41102;BME280;26845;50.190;19.178;2023-04-28T09:04:35;98999.26;;;16.36;44.14
41102;BME280;26845;50.190;19.178;2023-04-28T09:07:15;98996.48;;;16.34;44.57
41102;BME280;26845;50.190;19.178;2023-04-28T09:12:41;98989.19;;;16.69;45.13
41102;BME280;26845;50.190;19.178;2023-04-28T09:15:31;98986.73;;;16.95;45.47
41102;BME280;26845;50.190;19.178;2023-04-28T09:18:07;98986.64;;;17.33;43.71
41102;BME280;26845;50.190;19.178;2023-04-28T09:20:47;98989.02;;;17.39;43.20
41102;BME280;26845;50.190;19.178;2023-04-28T09:23:47;98985.60;;;17.47;42.26
41102;BME280;26845;50.190;19.178;2023-04-28T09:26:26;98984.00;;;17.36;41.88
41102;BME280;26845;50.190;19.178;2023-04-28T09:29:12;98980.10;;;17.55;43.00
41102;BME280;26845;50.190;19.178;2023-04-28T09:31:53;98973.00;;;17.77;40.53
41102;BME280;26845;50.190;19.178;2023-04-28T09:37:32;98967.38;;;17.68;42.64
41102;BME280;26845;50.190;19.178;2023-04-28T09:40:33;98965.16;;;18.02;41.96
41102;BME280;26845;50.190;19.178;2023-04-28T09:43:33;98961.44;;;18.01;36.88
41102;BME280;26845;50.190;19.178;2023-04-28T09:46:28;98960.60;;;17.76;39.48
41102;BME280;26845;50.190;19.178;2023-04-28T09:52:30;98951.63;;;17.71;38.97
41102;BME280;26845;50.190;19.178;2023-04-28T09:55:07;98949.85;;;17.67;38.58
41102;BME280;26845;50.190;19.178;2023-04-28T09:58:08;98946.45;;;17.48;38.26
41102;BME280;26845;50.190;19.178;2023-04-28T10:01:04;98946.38;;;17.76;39.83
41102;BME280;26845;50.190;19.178;2023-04-28T10:04:10;98925.66;;;17.94;39.27
41102;BME280;26845;50.190;19.178;2023-04-28T10:06:37;98925.06;;;18.22;40.27
41102;BME280;26845;50.190;19.178;2023-04-28T10:09:04;98923.61;;;18.59;40.52
41102;BME280;26845;50.190;19.178;2023-04-28T10:11:30;98913.23;;;18.91;39.17
41102;BME280;26845;50.190;19.178;2023-04-28T10:14:27;98916.84;;;19.18;39.10
41102;BME280;26845;50.190;19.178;2023-04-28T10:17:00;98911.44;;;19.06;36.75
41102;BME280;26845;50.190;19.178;2023-04-28T10:19:34;98910.37;;;18.64;36.50
41102;BME280;26845;50.190;19.178;2023-04-28T10:27:43;98888.81;;;18.85;36.93
41102;BME280;26845;50.190;19.178;2023-04-28T10:30:22;98899.30;;;18.91;37.76
41102;BME280;26845;50.190;19.178;2023-04-28T10:38:04;98889.85;;;18.25;38.08
41102;BME280;26845;50.190;19.178;2023-04-28T10:40:40;98886.23;;;18.46;33.81
41102;BME280;26845;50.190;19.178;2023-04-28T10:43:49;98879.50;;;18.18;35.46
41102;BME280;26845;50.190;19.178;2023-04-28T10:46:22;98882.83;;;18.23;34.97
41102;BME280;26845;50.190;19.178;2023-04-28T10:48:56;98877.50;;;18.36;34.57
41102;BME280;26845;50.190;19.178;2023-04-28T10:51:31;98870.84;;;18.23;34.01
41102;BME280;26845;50.190;19.178;2023-04-28T10:54:36;98866.63;;;18.39;37.00
41102;BME280;26845;50.190;19.178;2023-04-28T10:57:39;98860.05;;;19.03;37.16
41102;BME280;26845;50.190;19.178;2023-04-28T11:00:32;98847.60;;;19.43;35.65
41102;BME280;26845;50.190;19.178;2023-04-28T11:07:07;98844.09;;;19.90;35.97
41102;BME280;26845;50.190;19.178;2023-04-28T11:12:20;98843.13;;;20.16;34.29
41102;BME280;26845;50.190;19.178;2023-04-28T11:15:11;98834.02;;;19.63;31.07
41102;BME280;26845;50.190;19.178;2023-04-28T11:17:54;98831.39;;;19.03;33.16
41102;BME280;26845;50.190;19.178;2023-04-28T11:20:25;98829.54;;;19.11;35.57
41102;BME280;26845;50.190;19.178;2023-04-28T11:22:59;98829.20;;;19.58;34.57
41102;BME280;26845;50.190;19.178;2023-04-28T11:25:52;98824.36;;;19.54;33.37
41102;BME280;26845;50.190;19.178;2023-04-28T11:28:11;98823.86;;;19.63;33.71
41102;BME280;26845;50.190;19.178;2023-04-28T11:30:45;98819.16;;;19.47;33.17
41102;BME280;26845;50.190;19.178;2023-04-28T11:33:19;98815.77;;;19.45;32.84
41102;BME280;26845;50.190;19.178;2023-04-28T11:35:52;98808.14;;;19.56;34.02
41102;BME280;26845;50.190;19.178;2023-04-28T11:38:26;98809.73;;;19.94;34.34
41102;BME280;26845;50.190;19.178;2023-04-28T11:41:00;98805.52;;;20.37;34.08
41102;BME280;26845;50.190;19.178;2023-04-28T11:44:00;98798.09;;;20.86;34.20
41102;BME280;26845;50.190;19.178;2023-04-28T11:46:33;98795.77;;;21.41;34.20
41102;BME280;26845;50.190;19.178;2023-04-28T11:49:09;98799.55;;;21.39;32.34
41102;BME280;26845;50.190;19.178;2023-04-28T11:51:36;98789.90;;;21.18;32.44
41102;BME280;26845;50.190;19.178;2023-04-28T11:54:06;98795.29;;;21.18;33.25
41102;BME280;26845;50.190;19.178;2023-04-28T11:57:00;98794.22;;;21.31;32.88
41102;BME280;26845;50.190;19.178;2023-04-28T11:59:46;98791.31;;;21.57;32.98
41102;BME280;26845;50.190;19.178;2023-04-28T12:02:34;98797.59;;;21.51;31.07
41102;BME280;26845;50.190;19.178;2023-04-28T12:05:08;98789.56;;;21.18;31.16
41102;BME280;26845;50.190;19.178;2023-04-28T12:07:42;98796.69;;;20.95;30.28
41102;BME280;26845;50.190;19.178;2023-04-28T12:10:15;98791.57;;;20.72;32.10
41102;BME280;26845;50.190;19.178;2023-04-28T12:12:52;98794.32;;;20.60;31.77
41102;BME280;26845;50.190;19.178;2023-04-28T12:15:38;98779.80;;;20.43;31.92
41102;BME280;26845;50.190;19.178;2023-04-28T12:18:08;98779.52;;;20.70;32.48
41102;BME280;26845;50.190;19.178;2023-04-28T12:20:52;98768.17;;;21.18;33.26
41102;BME280;26845;50.190;19.178;2023-04-28T12:23:32;98763.27;;;21.53;32.14
41102;BME280;26845;50.190;19.178;2023-04-28T12:26:05;98765.36;;;21.62;31.91
41102;BME280;26845;50.190;19.178;2023-04-28T12:28:39;98765.85;;;21.53;31.01
41102;BME280;26845;50.190;19.178;2023-04-28T12:31:12;98766.83;;;21.55;29.93
41102;BME280;26845;50.190;19.178;2023-04-28T12:33:46;98761.02;;;21.05;29.80
41102;BME280;26845;50.190;19.178;2023-04-28T12:36:20;98754.59;;;20.52;29.43
41102;BME280;26845;50.190;19.178;2023-04-28T12:39:19;98753.11;;;20.07;30.40
41102;BME280;26845;50.190;19.178;2023-04-28T12:42:05;98749.58;;;19.97;30.80
41102;BME280;26845;50.190;19.178;2023-04-28T12:45:03;98739.84;;;20.28;31.57
41102;BME280;26845;50.190;19.178;2023-04-28T12:47:37;98726.91;;;20.71;32.25
41102;BME280;26845;50.190;19.178;2023-04-28T12:50:20;98721.77;;;21.22;31.52
41102;BME280;26845;50.190;19.178;2023-04-28T12:52:54;98721.38;;;21.49;30.72
41102;BME280;26845;50.190;19.178;2023-04-28T12:55:28;98717.95;;;21.28;29.29
41102;BME280;26845;50.190;19.178;2023-04-28T12:58:01;98724.63;;;20.90;29.60
41102;BME280;26845;50.190;19.178;2023-04-28T13:00:35;98720.02;;;20.89;30.52
41102;BME280;26845;50.190;19.178;2023-04-28T13:03:08;98713.81;;;21.08;29.89
41102;BME280;26845;50.190;19.178;2023-04-28T13:05:50;98712.70;;;20.62;27.10
41102;BME280;26845;50.190;19.178;2023-04-28T13:08:21;98707.55;;;20.18;27.73
41102;BME280;26845;50.190;19.178;2023-04-28T13:11:24;98703.66;;;19.86;28.01
41102;BME280;26845;50.190;19.178;2023-04-28T13:14:30;98704.91;;;19.84;29.64
41102;BME280;26845;50.190;19.178;2023-04-28T13:17:31;98700.33;;;20.15;29.12
41102;BME280;26845;50.190;19.178;2023-04-28T13:20:36;98692.73;;;20.45;29.44
41102;BME280;26845;50.190;19.178;2023-04-28T13:23:41;98683.10;;;20.69;28.55
41102;BME280;26845;50.190;19.178;2023-04-28T13:26:29;98689.09;;;20.57;27.40
41102;BME280;26845;50.190;19.178;2023-04-28T13:29:35;98677.98;;;20.31;28.69
41102;BME280;26845;50.190;19.178;2023-04-28T13:32:40;98677.52;;;20.78;29.10
41102;BME280;26845;50.190;19.178;2023-04-28T13:35:45;98666.75;;;21.37;29.43
41102;BME280;26845;50.190;19.178;2023-04-28T13:38:32;98660.66;;;21.65;28.23
41102;BME280;26845;50.190;19.178;2023-04-28T13:41:37;98666.10;;;21.16;26.52
41102;BME280;26845;50.190;19.178;2023-04-28T13:44:24;98651.91;;;20.92;28.64
41102;BME280;26845;50.190;19.178;2023-04-28T13:47:32;98659.77;;;20.63;25.91
41102;BME280;26845;50.190;19.178;2023-04-28T13:50:28;98655.77;;;20.43;27.63
41102;BME280;26845;50.190;19.178;2023-04-28T13:53:35;98647.77;;;20.49;28.56
41102;BME280;26845;50.190;19.178;2023-04-28T13:56:41;98645.89;;;20.39;27.31
41102;BME280;26845;50.190;19.178;2023-04-28T13:59:53;98634.63;;;20.14;28.19
41102;BME280;26845;50.190;19.178;2023-04-28T14:02:47;98633.28;;;20.15;26.85
41102;BME280;26845;50.190;19.178;2023-04-28T14:05:55;98636.74;;;19.83;26.91
41102;BME280;26845;50.190;19.178;2023-04-28T14:09:02;98634.81;;;19.83;27.70
41102;BME280;26845;50.190;19.178;2023-04-28T14:12:07;98636.84;;;19.85;28.13
41102;BME280;26845;50.190;19.178;2023-04-28T14:15:13;98637.36;;;19.93;27.80
41102;BME280;26845;50.190;19.178;2023-04-28T14:18:19;98638.90;;;20.06;28.44
41102;BME280;26845;50.190;19.178;2023-04-28T14:21:25;98639.85;;;19.99;27.91
41102;BME280;26845;50.190;19.178;2023-04-28T14:24:32;98639.36;;;19.57;27.50
41102;BME280;26845;50.190;19.178;2023-04-28T14:27:37;98625.32;;;19.34;28.01
41102;BME280;26845;50.190;19.178;2023-04-28T14:30:43;98627.73;;;19.40;28.38
41102;BME280;26845;50.190;19.178;2023-04-28T14:33:36;98628.89;;;19.30;28.44
41102;BME280;26845;50.190;19.178;2023-04-28T14:36:25;98621.41;;;19.16;28.07
41102;BME280;26845;50.190;19.178;2023-04-28T14:39:31;98620.87;;;18.83;27.40
41102;BME280;26845;50.190;19.178;2023-04-28T14:42:38;98616.02;;;18.55;28.19
41102;BME280;26845;50.190;19.178;2023-04-28T14:45:35;98614.31;;;18.94;28.91
41102;BME280;26845;50.190;19.178;2023-04-28T14:48:40;98613.25;;;19.41;29.25
41102;BME280;26845;50.190;19.178;2023-04-28T14:51:40;98611.88;;;19.80;28.83
41102;BME280;26845;50.190;19.178;2023-04-28T14:54:46;98609.49;;;20.22;29.13
41102;BME280;26845;50.190;19.178;2023-04-28T14:57:51;98611.14;;;20.47;28.30
41102;BME280;26845;50.190;19.178;2023-04-28T15:00:58;98610.90;;;20.25;28.26
41102;BME280;26845;50.190;19.178;2023-04-28T15:04:04;98608.20;;;20.29;28.92
41102;BME280;26845;50.190;19.178;2023-04-28T15:07:09;98602.29;;;20.49;28.93
41102;BME280;26845;50.190;19.178;2023-04-28T15:09:57;98600.27;;;20.64;28.58
41102;BME280;26845;50.190;19.178;2023-04-28T15:12:30;98599.40;;;20.66;28.42
41102;BME280;26845;50.190;19.178;2023-04-28T15:15:04;98595.59;;;20.73;29.10
41102;BME280;26845;50.190;19.178;2023-04-28T15:17:37;98599.13;;;20.73;28.58
41102;BME280;26845;50.190;19.178;2023-04-28T15:20:11;98599.74;;;20.60;28.57
41102;BME280;26845;50.190;19.178;2023-04-28T15:22:45;98596.06;;;20.54;28.74
41102;BME280;26845;50.190;19.178;2023-04-28T15:25:18;98598.10;;;20.44;28.82
41102;BME280;26845;50.190;19.178;2023-04-28T15:27:52;98595.35;;;20.27;28.94
41102;BME280;26845;50.190;19.178;2023-04-28T15:30:26;98592.20;;;20.05;28.81
41102;BME280;26845;50.190;19.178;2023-04-28T15:33:00;98595.16;;;19.96;28.61
41102;BME280;26845;50.190;19.178;2023-04-28T15:35:33;98588.42;;;19.90;29.21
41102;BME280;26845;50.190;19.178;2023-04-28T15:38:07;98590.27;;;19.83;28.61
41102;BME280;26845;50.190;19.178;2023-04-28T15:40:49;98586.48;;;19.71;28.86
41102;BME280;26845;50.190;19.178;2023-04-28T15:43:20;98586.77;;;19.59;28.79
41102;BME280;26845;50.190;19.178;2023-04-28T15:45:53;98583.98;;;19.54;28.97
41102;BME280;26845;50.190;19.178;2023-04-28T15:48:30;98582.41;;;19.47;29.25
41102;BME280;26845;50.190;19.178;2023-04-28T15:51:11;98578.70;;;19.39;29.44
41102;BME280;26845;50.190;19.178;2023-04-28T15:53:45;98574.85;;;19.34;29.61
41102;BME280;26845;50.190;19.178;2023-04-28T15:56:19;98572.84;;;19.28;29.26
41102;BME280;26845;50.190;19.178;2023-04-28T15:59:06;98571.81;;;19.20;29.44
41102;BME280;26845;50.190;19.178;2023-04-28T16:01:37;98565.16;;;19.10;29.57
41102;BME280;26845;50.190;19.178;2023-04-28T16:04:13;98566.10;;;19.08;29.81
41102;BME280;26845;50.190;19.178;2023-04-28T16:06:47;98564.19;;;19.04;29.64
41102;BME280;26845;50.190;19.178;2023-04-28T16:09:20;98560.14;;;18.88;29.59
41102;BME280;26845;50.190;19.178;2023-04-28T16:11:51;98556.09;;;18.80;29.80
41102;BME280;26845;50.190;19.178;2023-04-28T16:14:46;98553.29;;;18.76;30.15
41102;BME280;26845;50.190;19.178;2023-04-28T16:17:22;98553.52;;;18.71;29.98
41102;BME280;26845;50.190;19.178;2023-04-28T16:19:56;98553.15;;;18.64;30.42
41102;BME280;26845;50.190;19.178;2023-04-28T16:25:54;98557.89;;;18.55;30.71
41102;BME280;26845;50.190;19.178;2023-04-28T16:28:53;98551.61;;;18.53;30.66
41102;BME280;26845;50.190;19.178;2023-04-28T16:31:52;98558.27;;;18.53;31.10
41102;BME280;26845;50.190;19.178;2023-04-28T16:37:50;98552.79;;;18.43;32.13
41102;BME280;26845;50.190;19.178;2023-04-28T16:46:47;98541.10;;;18.32;32.01
41102;BME280;26845;50.190;19.178;2023-04-28T16:49:44;98538.96;;;18.30;32.56
41102;BME280;26845;50.190;19.178;2023-04-28T16:52:18;98535.54;;;18.22;32.63
41102;BME280;26845;50.190;19.178;2023-04-28T16:54:51;98528.40;;;18.14;32.64
41102;BME280;26845;50.190;19.178;2023-04-28T16:57:25;98529.52;;;18.08;32.37
41102;BME280;26845;50.190;19.178;2023-04-28T16:59:56;98526.34;;;18.03;32.21
41102;BME280;26845;50.190;19.178;2023-04-28T17:02:30;98526.61;;;17.95;33.21
41102;BME280;26845;50.190;19.178;2023-04-28T17:07:37;98528.31;;;17.79;33.79
41102;BME280;26845;50.190;19.178;2023-04-28T17:10:21;98529.13;;;17.69;33.61
41102;BME280;26845;50.190;19.178;2023-04-28T17:12:58;98530.29;;;17.58;33.43
41102;BME280;26845;50.190;19.178;2023-04-28T17:15:34;98526.38;;;17.49;33.63
41102;BME280;26845;50.190;19.178;2023-04-28T17:18:08;98524.92;;;17.40;33.52
41102;BME280;26845;50.190;19.178;2023-04-28T17:20:52;98522.48;;;17.30;33.67
41102;BME280;26845;50.190;19.178;2023-04-28T17:23:28;98518.84;;;17.22;34.19
41102;BME280;26845;50.190;19.178;2023-04-28T17:26:16;98521.34;;;17.12;34.04
41102;BME280;26845;50.190;19.178;2023-04-28T17:29:09;98519.64;;;17.03;34.53
41102;BME280;26845;50.190;19.178;2023-04-28T17:32:24;98519.22;;;16.96;34.58
41102;BME280;26845;50.190;19.178;2023-04-28T17:35:29;98522.54;;;16.83;34.78
41102;BME280;26845;50.190;19.178;2023-04-28T17:47:20;98525.99;;;16.19;35.39
41102;BME280;26845;50.190;19.178;2023-04-28T17:50:14;98525.50;;;16.07;35.78
41102;BME280;26845;50.190;19.178;2023-04-28T18:21:17;98568.88;;;14.34;36.98
41102;BME280;26845;50.190;19.178;2023-04-28T18:30:23;98575.33;;;14.17;37.51
41102;BME280;26845;50.190;19.178;2023-04-28T18:33:18;98575.13;;;14.13;37.29
41102;BME280;26845;50.190;19.178;2023-04-28T18:36:09;98580.73;;;14.21;37.36
41102;BME280;26845;50.190;19.178;2023-04-28T18:42:33;98580.19;;;14.23;37.53
41102;BME280;26845;50.190;19.178;2023-04-28T18:48:27;98583.98;;;14.18;37.73
41102;BME280;26845;50.190;19.178;2023-04-28T20:03:58;98569.63;;;12.98;39.63
41102;BME280;26845;50.190;19.178;2023-04-28T20:41:36;98565.62;;;12.32;40.28
41102;BME280;26845;50.190;19.178;2023-04-28T21:42:40;98530.39;;;10.72;43.65
